Sunday, November 23, 2014
08:38 UTC
  |  Log In   |  Register Free
Airport Search:

Raton Municipal/Crews Field Airport
(KRTN)

Raton Municipal/Crews Field Airport Diagram
No Airport Diagram Available

FAA data valid effective November 13, 2014 - January 08, 2015 (unless otherwise noted).

 
 
 
 
 
 
 
 
 
 
 
 
 
 

Current Aviation Weather for Raton Municipal/Crews Field Airport (KRTN)

The most recent METAR observation for KRTN was updated at: 0819
METAR Summary (Translated METAR)
KRTN
230753Z AUTO 30015G32KT 10SM CLR 08/M07 A2963 RMK AO2 PK WND 31032/0746 WSHFT 0646 SLP972 T00781067
KTAD
230754Z AUTO 28009KT 10SM CLR 06/M06 A2957 RMK AO2 SLP966 T00611061
(32 nm NE from KRTN)
KAXX
230755Z AUTO 25009KT 10SM OVC040 01/M06 A2980 RMK AO2 T00071062
(42.6 nm SW from KRTN)
TAF
No TAF information found within 50 nm of KRTN
  Airport Weather Conditions for KRTN

 Current Weather at RTN
46° F
Fair
Northwest winds at 17.3 mph
RTN NOAA Radar

Pressure: 29.63 in
Humidity: 35%
Wind: from the Northwest at 17.3 gusting to 36.8 MPH (15 gusting to 32 KT)
Dew Point: 19.9°F
Visibility: 10.00 mi


Airport Weather Forecast for KRTN

Translated METAR and TAF for KRTN
Translated METAR for KRTN (0833 UTC 23 November 2014)
found at http://aviationweather.gov/adds/metars/
 
METAR text: KRTN 230753Z AUTO 30015G32KT 10SM CLR 08/M07 A2963 RMK AO2 PK WND 31032/0746 WSHFT 0646 SLP972 T00781067
Conditions at: KRTN (RATON , NM, US) observed 0753 UTC 23 November 2014
Temperature: 7.8°C (46°F)
Dewpoint: -6.7°C (20°F) [RH = 35%]
Pressure (altimeter): 29.63 inches Hg (1003.5 mb)
[Sea-level pressure: 997.2 mb]
Winds: from the WNW (300 degrees) at 17 MPH (15 knots; 7.8 m/s)
gusting to 37 MPH (32 knots; 16.6 m/s)
Visibility: 10 or more miles (16+ km)
Ceiling: at least 12,000 feet AGL
Clouds: sky clear below 12,000 feet AGL
Weather: automated observation with no human augmentation;
there may or may not be significant weather present at this time
Translated TAF for KRTN

There is no translated TAF available for this airport

Find All Airport Services Find A Hotel Find A Rental Car Find A Golf Course Find A Restaurant $100 Hamburger



FBO's on the Field
FBO Company Facility Photos Services Transportation Aviation Fuel Prices: Prices include tax
Catering Weather Repair Courtesy Rental Type 100LL JetA JetA+ MOGAS 8087
 
Pegasus Aviation

This FBO has not yet been rated
FS:Phillips 66
Last Updated: Nov-06
Login to update fuel prices
SS:
Contact Pegasus AviationMore FBO Information
 
Add another FBO Facility Photos Catering Weather Repair Courtesy Rental Type 100LL JetA JetA+ MOGAS 8087
Services Transportation Aviation Fuel Prices: Prices include tax


model-print
model-print
model-print
model-print